« 2010年4月 | トップページ | 2010年6月 »

2010年5月

2010/05/27

見上げればお腹 成田近郊 2010/5/27 thu

関東近郊に出張っているのだが、そこは飛行機銀座にあたる地域で、いつも飛行機の音がしている。そんなとある場所で、昼休みに成田からの出発機を盗み撮りした。本日も不安定な空模様で、写真を撮っている時は青空も広がっていたが、3時間後にはとんでもない豪雨となって、車の運転も間々ならない日であった。

RJAA 270730Z 12008KT 9999 -SHRA FEW020CB SCT025 BKN070 17/15 Q1004 TEMPO 4000 TSRA RMK 1CB020 3CU025 5AC070 A2967 CB 15KM NE MOV SE
RJAA 270700Z 13010KT 9999 -SHRA FEW020CB BKN030 BKN070 17/14 Q1004 TEMPO 4000 TSRA RMK 1CB020 5CU030 6AC070 A2966 CB 10KM N MOV SE
RJAA 270630Z 14011KT 110V180 9999 FEW020CB BKN030 18/14 Q1003 WS R16R TEMPO 4000 TSRA RMK 1CB020 6CU030 A2964 CB 15KM NW MOV SE
RJAA 270600Z 15008KT 9999 FEW020 BKN030 19/15 Q1003 TEMPO 4000 SHRA RMK 1CU020 6CU030 A2964
RJAA 270530Z 14010KT 9999 BKN030 20/15 Q1003 NOSIG RMK 5CU030 A2964
RJAA 270500Z 12004KT 020V190 9999 SCT030 22/14 Q1003 NOSIG RMK 4CU030 A2964

20100527_rjaa_ja735a

コンデジの望遠は、これが限界

ANA201 RJAA-EGLL JA735A B773ER

20100527_rjaa_vtalg

見慣れないはでな赤、初観のエアインディアB772

AIC307 RJAA-VIDP VTALG B772ER

20100527_rjaa_vpblx_2

随分お腹が大きいA330です

AFL584 RJAA-UUEE VPBLX A332

20100527_rjaa_daihx

翼端からペイパーを引いて上昇中のLH 小さくてREGは読み取れず

DLH715 RJAA-EDDM DAIHx A346

20100527_rjaa_ja733j

遠くからでも一見で解るのは、やっぱりJAL

JAL407 RJAA-EDDF JA733J B773ER

20100527_rjaa_fdx15

これも初観のFDXのB772F

FDX15 RJAA-???? ?????? B772ERF

20100527_rjaa_oykbc

赤いエンジンナセルに青い垂直尾翼、サザンオールスターズ ふるぅぅ

SAS984 RJAA-EKCH OYKBC A343

20100527_rjaa_ja8081

数が減ってもB4はいいよねぇ、でもこの路線は廃止となるか?

JAL409 RJAA-LIRF JA8081 B744

20100527_rjaa_fdxmd11f

たぶん中国行き 右旋回して上昇、木更津に向かった。成田空港上空過ぎまで視認できた。ラジオコールは聴き逃し

FDX??? RJAA-???? ?????? MD11F

みんな同じ様な絵は、かんべんしてね。

| | コメント (0) | トラックバック (0)

2010/05/25

驟雨の成田2 成田国際空港 2010/5/24 mon

到着機はあまり来ないけど、出発機は、列をなして出発して行きます。ですが、出発機にカメラを向けると向かい風となり、雨か容赦なく降り注いできます。傘を盾に片手でカメラを構え、ひっきりなしに水滴を拭き吹き戦います。途中、何度かカメラが発狂しかかるのですが、なんとか治めました。

20100524_rjaa_9mmrl

MAS89 RJAA-WMKK 9MMRL B772ER

20100524_rjaa_ja617a

ANA927 RJAA-ZSQD JA617A B763ER

20100524_rjaa_oelpa

AUA52 RJAA-LDWW OELPA B772ER

20100524_rjaa_b6129

CES272 RJAA-ZSPD B6129 A333

20100524_rjaa_ja708j

JAL405 RJAA-LFPG JA708J B772ER

20100524_rjaa_hstgg

THA641 RJAA-VTBD HSTGG B744

20100524_rjaa_pkgpg

GIA881 RJAA-WRRR PKGPG A333

20100524_rjaa_ja303j

JAL957 RJAA-RKPK JA303J B738

20100524_rjaa_bhlf

CPA501 RJAA-VHHH BHLF A333

20100524_rjaa_n69063

CMI962 RJAA-PGUM N69063 B764

| | コメント (0) | トラックバック (0)

驟雨の成田 成田国際空港 2010/5/24 mon

先週から関東に出ているのだが、本日は終日雨で仕事になりそうもないので、性懲りもなく成田へでかけた。飛行機撮影には最悪の日なのだが、そんな日はどんな絵なのだろうかとの素朴な疑問と、B滑走路延長により運用がどう変わっているの確認してみました。

RJAA 232000Z 11013KT 3500 -RA BR FEW003 SCT005 BKN008 16/16 Q1009 TEMPO BKN005 BKN008 RMK 1ST003 3ST005 5ST008 A2981

RJAA 232041Z 2321/2424 12013KT 4000 -RA BR BKN008 BKN012
TEMPO 2321/2404 3000 -RA BR BKN005 BKN008

朝のMETARを確認すると風は南から、ライトレインに靄。チェックポイントは 16/16 これは気温が16℃ 露点も16℃ つまり水蒸気が露になっている証です。ただ風が10ntを超えているので、そんなに漂程にはなっていないと推測できる。Forecastsは、そんなに変化が無い模様です。

20100524_rjaa_ja614a

桜の山到着は10時半。この時の状況は、御覧のとおり。

ANA905 RJAA-ZBAA JA614A B772

20100524_rjaa_gcivy

ほぼ16正対の風のため、着陸機はL、出発機はRを使用している模様。その中でもリクエストによりRに着陸してくるBAW

BAW5 EGLL-RJAA GCIVY B744

20100524_rjaa_n105ua

午後になると、ますます雨が厳しくなってきて、着陸機は、金団雲を背負って降りてきます。

UAL837 KSFO-RJAA N105UA B744

20100524_rjaa_n576fe

撤収間近には、雨の降りは収まったものの、管制塔の頭だけ雲の中となって、その高さが役に立たない状況に。

FDX15 RJAA-???? N576FE MD11F

他にめぼしいものは、時間があれは後報にて

| | コメント (0) | トラックバック (0)

2010/05/19

戦競10 はじまるよー 2010/5/19 wed

今年度の戦競は、F15、F2とも千歳、三沢で、明日から実施される。昨年はF15が小松だったので、小生も楽しませていただいた。F2は、天候不良で中止だったので、3飛行隊がそろっての開催は、初めてとなるのかな。雑誌等でのレポートが楽しみです。

本日私が確認できたところでは、小松の竜と金鷲は北に向った。また沖縄の白頭鷲も小松中継で北に向った。入れ替わりに千歳から白熊が疎開してきた。蟻組の皆さんは、しっかり消毒していってください。

なお、梅組は最下記の演習で参加していないので、百里は三沢の疎開地になっているでしょうか?

また、各地で目撃されている戦競参加機の特別塗装を見ると、201-3 303-3 306-8 とF15飛行隊にF2飛行隊のマークが掲示されているところから、F15とF2のミックス編隊でのAストライク競技でもあるのだろうか?

JASDF-> 平成22年度航空総隊戦技競技会の実施について

お知らせ
平成22年5月11日

平成22年度航空総隊戦技競技会の実施について

 航空自衛隊は、戦闘機部隊の戦闘能力向上を図るため、次のとおり航空総隊戦技競技会を実施します。
競技内容 戦術戦闘
競技部隊 飛行部隊 警戒管制部隊
F-2及びF-15部隊 各防空管制隊
期   間 22.5.20(木)~22.6.3(木)(予備日を含む。)
場   所 千歳基地、三沢基地及び同周辺空域 三沢基地
参加部隊 F-2 :3個飛行隊
F-15:6個飛行隊
4個部隊
統 裁 官 航空総隊司令官 空将 岩﨑 茂
備  考 F-15部隊:第305飛行隊は不参加

JASDF-> 米軍との空中給油訓練について

(お知らせ)
平成22年4月28日
米軍との空中給油訓練について

 航空自衛隊は、下記のとおり米軍との空中給油訓練を行います。
<><>

<>

1
目的
航空自衛隊は、アラスカにおける演習への参加を予定しており、演習参加にあたり、米軍の空中給油支援が必要であるため本訓練を実施する。
2
期間
平成22年5月6日(木)~5月22日(土)(移動日を含む)
 飛行訓練:5月10日(月)~5月18日(火)
 予備日:5月19日(水)~5月21日(金)
3
使用基地及び使用空域
那覇基地及び同周辺空域
4
訓練実施部隊
中部航空方面隊(第7航空団)、南西航空混成団(南西航空警戒管制隊)、警戒航空隊
※ 本訓練は、米空軍空中給油機の支援を受け実施
5
訓練概要等
(1)
規模
 空自 F-15×4~8機、E-767×1機
 米軍 KC-135×1機
(2)
訓練内容
 米空軍教官が空自隊員に対し、空中給油に関する講義を実施
 空自F-15が、米空軍空中給油機(KC-135)からの受油要領を演練
 航空警戒管制部隊が、空自F-15の空中給油にかかわる管制要領を演練

| | コメント (0) | トラックバック (0)

2010/05/16

定点 富山空港 2010/5/15 sat

陽射しは夏なのだけど、北風が寒いのです。空はまるで秋のように澄んで、巻雲なんかもチラホラな日、午後からちょこっと定点撮影に行ってきました。

RJNT 150000Z 35004KT 300V050 9999 FEW015 13/06 Q1021
RJNT 142300Z 34003KT 280V020 9999 FEW020 11/06 Q1022
RJNT 142200Z 17003KT 100V220 9999 FEW005 09/05 Q1021

朝は10度以下だもんな、寒いはずです。

20100515_rjnt_ja300ka

ADO70 RJCC-RJNT JA300K B735

これに間に合うように出かけたけど、見るとすでに02ファイナルに接近中でした。

20100515_rjnt_hl7790a

AAR128 RKSI-RJNT HL7790 A321

20100515_rjnt_ja893f

JA893F BH41 石川県防災

20100515_rjnt_ja300kb

ADO79 RJNT-RJCC JA300K B735

20100515_rjnt_ja8273a

ANA885 RJTT-RJNT JA8273 B763

20100515_rjnt_ja5264a

JA5264 C404 NNK

富山VORを背景に、着陸後RW上でターン

20100515_rjnt_hl7790b

AAR127 RJNT-RKSI HL7790 A321

20100515_rjnt_ja8273b

ANA888 RJNT-RJTT JA8273 B763

背景は、手前の鍬崎山から雄山方面

20100515_rjnt_ja3717

JA3717 C206 IBA

今週も精力的に航空測量を実施していた。他に JA8890 C208 ASK JA3872 C206 PV JA001R R44 KRS が富山ベースで飛行していた。

20100515_rjnt_kamo

空の先輩も盛んに飛び回っていた。背景は、剣岳

20100515_rjnt_jalshq

澄み切った青空に飛行機雲がクロスオーバー 時刻表から上方が JAL2513 RJBB-RJCC B763 下方が SHQ6633 ZSPD-PANC MD11F と思われます

20100515_rjnt_ja5264b

JA5264 C404 NKK 名古屋へお帰りです

20100515_rjnt_b18609a

CAL7774 RCKH-RJNT B18609 B738

20100515_rjnt_ja8259b

ANA890 RJNT-RJTT JA8259 B763

ちょっと斜めになって、見苦しくてスミマセン

20100515_rjnt_ja8386a

ANA889 RJTT-RJNT JA8386 A320

B6の整備ローテーションでたまにA320が入る場合がある。今月は土曜にベタ

20100515_rjnt_b18609b

CAL7775 RJNT-RCKH B18609 B738

本日は、台中からMDAも予定されていたが、ツアーキャンセルとなったようだ

20100515_rjnt_b22310

TNA6996 RCKH-RJNT B22310 A320

19時着ですが、ちゃんとツアー客を運んできます。お客さんは、そのまま夕食会場で宴会のようです。

20100515_rjnt_ja8386b

ANA891 RJNT-RJTT JA8386 A320

前の復興もかなり暗くなっていますが、30分もすれば真っ暗となりました。

| | コメント (0) | トラックバック (0)

2010/05/11

陽炎ユラユラ 厚木飛行場 2010/5/9 sun

会場に入ってほどなくして、西側からエンジン始動の音が、やおら響いてきます。本日は日曜日ですが、NAVYは硫黄島まで飛行訓練の模様です。翼下にはタンク以外吊り下げていないので、着艦訓練でしょうか。

20100509_rjta_nf211

10:52 先陣を切ってMACEのFA18Eが3機編隊で出発 FA18E VFA27#211

20100509_rjta_nf202

連続離陸 この編隊は、#211 #202 #203

20100509_rjta_nf210

10:58 MACE第2編隊4機 #205 #207 #210 #212 低くて藪が邪魔します FA18E VFA27#212

20100509_rjta_nf501

11:04 プラウラーとGDのFA18Cの編隊が続きます EA6B VAQ136#501

20100509_rjta_nf400_2

唯一のレガシーホーネット部隊となったVFA195CHIPPY FA18C VFA195#400

20100509_rjta_0049

1136 風が変わって、RW19からC9Bが離陸 C9B(DC9-32CF) 160049

20100509_rjta_nf500

1150 プラウラー編隊 #500 #504 EA6B VAQ136#500 164402

20100509_rjta_nf405

12:15 Eはタンク一本でしたが、Cはタンク2本釣っています #405 #402 #412 FA18C VFA195#405

| | コメント (0) | トラックバック (0)

2010/05/10

春ウララ 厚木飛行場 2010/5/9 sun

晴天の続いたGWの後、遊び疲れている週末もこれまたよい天気で、身体がおとなしくしていません。チョイと富士山でも見ながら八王子までドライブ。その先脚を伸ばして、海自チビヤンが開催されている厚木飛行場まで出かけた。どこがチョイなのか解りませんが、日帰りでもそんなに疲れも感じず、満足して帰ってきた。厚木チビヤンは2004年以来6年ぶり。いつもは海自のデモフライトが少し行われていたが、今回はまったく無し。ただ、CVW5御一行が滞在中なので、その、なにかを期待した。

20100509_rjta_719089

第71航空隊の厚木派遣機は、US1Aでした。 US1A 71-9089

20100509_rjta_vfa102100a

米海軍からの友好展示は、まだまだピカピカのFA18F VFA102#100 166915

20100509_rjta_vfa102100b

USS GEORGE WASHINGTON 搭載機となってからは、初めて間近で見た。

20100509_rjta_35095

地元第3航空隊のP3Cは兵装展示 P3C 3-5095

20100509_rjta_jg2967a

厚木で陸自機を見るのは初めてですが、防護装備の機体も初めてです。 第1ヘリコプター団第1輸送ヘリコプター群第103飛行隊 CH47JA HGPIII 52967

20100509_rjta_jg2967b

IRセンサーやフレアーが装備された。今でもKATORIの愛称は継続されている。

20100509_rjta_515417

厚木基地東側地区所在の第51航空隊からは、このSH60Kのみ SH60K 51-5417

20100509_rjta_hs14610

米海軍のヘリは、HS14 なかなか素晴らしい塗装です。 SH60F HS14#610 164460

20100509_rjta_vaq136503

ポッド満載で展示されていたプラウラー EA6B VAQ136#503 163401

20100509_rjta_619301

第61航空隊のLC90もピカピカでした。開場すぐに日除場所に LC90 61-9301

20100509_rjta_619042

機内公開に長蛇の列となったYS11 YS11M 61-9042

20100509_rjta_515099

展示場以外に駐機していた VX51のP3C 51-5088

20100509_rjta_vaw115600

上記の尻尾の向こうに、機体更新してまもないHE2000が並んで駐機していた VAW115 E2CHE2K#600

20100509_rjta_hsl51707

HSL51#707 SH60B

| | コメント (0) | トラックバック (0)

2010/05/06

趣味的航空路誌改訂情報 2010/5/6 thu

趣味的航空路誌改訂情報 2010/5/6 thu
5月の航空路誌改訂から、めぼしいものをピックアップ。これはあくまでも小生が趣味的にメモとして記録しているものです。

今月は年度初とあって大きな変更は無いようである。

○エンルート図の更新

○運航者略号の変更

○航空路の改正
Revision of AWY: V2

○直行経路の改正
TSC-KEC KEC-NATCH (NAV GAP,MRA の追加等)

○名古屋飛行場における着陸拘束装置の変更

○神戸空港における管制周波数に係る改正
非常用周波数が追加

○成田国際空港における誘導案内灯の供用開始等

○大分空港における管制周波数に係る改正
各管制席にUの非常用周波数が追加
APP ASR DEP の各Primmaryが区分けされ明示される

○東京国際空港における滑走路16R の進入角指示灯の位置変更

○東京国際空港における誘導路N の形状変更

| | コメント (0) | トラックバック (0)

2010/05/05

GWも終わり 松本空港 2010/5/5 wed

GWも最終日。真夏日となっているが湿度が低いためか、さわやかな暑さであった。JAL狂想曲の第一幕、松本空港からJALグループが撤退するのは、今月である。今ではJACが大阪から機体を廻して、福岡、札幌を往復しているが、来月からは有り難いことにFDAが路線を維持してくれる。早速、松電バスには広告が掲示され、今週末からは事前PRも兼ねた静岡チャーターも運航される。

20100505_rjaf_ja844ca

JAC2271 RJOO-RJAF JA844C DH84

20100505_rjaf_ja844cb

JAC2854 RJAF-RJCC JA844C DH84

20100505_rjaf_b2331a

CES2077 ZSPD-RJAF B2331 A319

20100505_rjaf_b2331b

日本からの片道チャーターかと思っていたが、万博開催をけって日本に遊びにきてくださった方のお帰りもありました。

CES2077 ZSPD-RJAF B2331 A319

20100505_rjaf_b2331c_2

CSE2078 RJAF-ZSPD B2331 A319

20100505_rjaf_ja97na

JA97NA BH41 長野県防災

20100505_rjaf_ja110e

JA110E AS65 長野県警

20100505_rjaf_ja3988

JA3988 C172 新中央航空

20100505_rjaf_n4972r

N4972R C172 米空軍横田飛行倶楽部

| | コメント (0) | トラックバック (0)

2010/05/04

UAxCO=COstyleUA 2010/5/3 mon

U2からUCへ

先に、UALのUSAirwaysとの提携交渉が破談したと思っていたら、出てきました大きな統合が。UALがContinetalAirlinesを買収、UnitedAirlinesへ。買収金額は31億ドル。報道を見ていると、会社と社名はユナイテッドとなるようですが、デザインはコンチネンタルとなる模様で、コンチのアースマークにコンチの書体で、UnitedAirlinesと発表されている。CEOはコンチのCEOがつくので、資本はUALで再建手腕のあるコンチの経営陣が経営を担うようである。これで、デルタを抜いて世界一の航空会社となり、スタアラとスカイの争いは激しさを増すのか。一方置いていかれているアメリカンのワンワールドは、日本で見ればやはりJALがお荷物となる。再建などと、うまいことを言っているが、いっきに破産として、一から出直すべきであったのです。今般発表されている路線縮小も確実に実行して、早く収益のでる会社体質に転換してほしいですね。

20090620_rjaa_n78013

2009/6/20 N78013 RJAA

この塗装に次のUnitedAirlinesが青文字で入るのが新デザインらしい

20090620_rjaa_n786ua

2009/6/20 RJAA N786UA

新塗装への転換がなかなか進まず、今でも旧塗装機が多くをしめている

20090725_rjaa_n77012

2009/7/25 RJAA N77012

日本ではお馴染みのエアマイクのコールは変わるか?

20090725_rjaa_n122ua

2009/7/25 RJAA N122UA

新塗装機はあまり撮れていないので、チョット残念

| | コメント (0) | トラックバック (0)

2010/05/02

定点 富山空港 2010/5/2 sun

今年のGWは遠出を諦めたので、地元でまったりです。朝から半日、遠くを眺めて近眼のリハビリ訓練です。

20100502_rjnt_ja602a

ANA881 RJTT-RJNT JA602A B763

20100502_rjnt_ja8524

JTA3230 ROAH-RJNT JA8524 B734

目的地は、石垣。もう泳げますね。最後の新空港となる石垣空港ができると、帰りもダイレクトになりますね。

出発 JTA3231 RJNT-ROIG JA8524 B734

20100502_rjnt_ja8971a

ANA883 RJTT-RJNT JA8971 B763ER

旧ダイヤの時代から883には外航用機が入る確立が高かった。

20100502_rjnt_n25201

こちらも南国行きのチャーター

CMI994 RJNT-PGUM N25201 B738

Dep.10:20JST Arr.15:58AEDT

KMC V52 KEC TAPOP A597 BUBDO A597 RICHH A597 REEDE

Arr.ferr CMI981 PGUM Dep.07:55AEDT - RJNT Arr.09:29JST

REEDE A597 RICHH A597 TAPOP KEC V52 KCC V52 KMC OYABE

20100502_rjnt_hl7730a

本日の収穫 スタアラ塗装のアシアナA321

AAR128 RKSI-RJNT HL7730 A321

20100502_rjnt_ja8971b

ANA886 RJNT-RJTT JA8971 B763ER

20100502_rjnt_b2167

万博で沸く上海からは、後期型でウイング無しタイプでした

CSH825 ZSPD-RJNT B2167 B738

20100502_rjnt_hl7730b

AAR127 RJNT-RKSI HL7730 A321

20100502_rjnt_b16822

MDA7356 RCMQ-RJNT B16822 E190

20100502_rjnt_ja8196

ADO79 RJNT-RJCC JA8196 B735

20100502_rjnt_ja8259

ANA885 RJTT-RJNT JA8259 B763

20100502_rjnt_b22607

TNA6992 RCTP-RJNT B22607 A321

20100502_rjnt_ja03hk

立山等の取材に飛来したおなじみの北國新聞機

JA03HK EC135 北國新聞

20100502_rjnt_ja2177

JA2177 SF-28A タンデムフアルケ

20100502_rjnt_ja3717

先週から精力的に航空撮影に飛び回っている。本日は午後からミッション

JA3717 C206 アイベックスアビエーション

20100502_rjnt_ja3817

JA3817 PA-28R-201T

20100502_rjnt_ja6768

最後は、昨日から遭難等に県警ヘリと大忙し

JA6768 BH41 富山県防災

| | コメント (0) | トラックバック (0)

2010/05/01

夜の富山 富山空港 2010/4/30 fri

能登からの帰路、晴れている空の西側に黒雲が立ち上ってきていた。夜、片道だけ富山から出発するベトナム航空を狙いに富山空港に向うと、その雨雲が雷を伴って土砂降りの通り雨として通過した。

20100430_rjnt_ja6869

何かの用務で雨の中エプロンに一度入ってきた県警へり

JA6869 A109 富山県警

20100430_rjnt_vna359a

ツアー募集は小松発着だったようなベトナム行きですが、今回往路のみ関空経由で富山発となったようだ。ホーチミンからのフェリーで、通り雨通過の中やってきた。

HVN9958 VVTS-RJNT VNA359 A321

20100430_rjnt_vna359b

エプロン照明は、あまり強くないので滑走路上での機体は、よく映らない。富山らしいのは、バックのNTCのネオンサイン

HVN9958 VVTS-RJNT VNA359 A321

20100430_rjnt_ja8259

最終東京行き

ANA892 RJNT-RJTT JA8259 B763

20100430_rjnt_vna359c

濃緑の機体は、闇に溶け込み、尾翼の蓮の花がまるで蝋燭の炎のようです

これから関空まで飛んで、関空23:04発でハノイへ向った。

HVN9957 RJNT-RJBB VNA359 A321

| | コメント (0) | トラックバック (0)

春の能登 能登空港 2010/4/30 fri

家人を七尾まで送るついでに、能登空港まで脚を伸ばしてきました。空港としては、特にトピックスはありませんが、定点観測として。

20100430_rjnw_ja8860

たまたま飛行訓練でやってきた海保新潟航空基地のビーチ、一度タッチアンドゴーをして戻っていった。

JA8860 BE20 JGC

20100430_rjnw_ja8394a

ANA747 RJTT-RJNW JA8394 A320

20100430_rjnw_b18612a

4月に5本設定されている台湾からのチャーター

CAL7594 RCTP-RJNW B18612 B738

20100430_rjnw_ja8394b

折り返しの東京行きは、折から西からの強風で軽々とエアボーン

ANA748 RJNW-RJTT JA8394 A320

20100430_rjnw_b18612b

3番スポットは、写真撮影に向いている場所です。

CAL7593 RJNW-RCTP B18612 B738

20100430_rjnw_b18612c

また富山で逢いましょう

CAL7593 RJNW-RCTP B18612 B738

| | コメント (0) | トラックバック (0)

« 2010年4月 | トップページ | 2010年6月 »